createdAt,value
2023-02-27T00:02:18.432Z,38.88
2023-02-27T00:07:25.967Z,39.37
2023-02-27T00:12:30.676Z,39.95
2023-02-27T00:17:35.598Z,39.34
2023-02-27T00:22:39.172Z,39.75
2023-02-27T00:27:43.101Z,39.69
2023-02-27T00:32:48.062Z,39.33
2023-02-27T00:37:51.527Z,39.27
2023-02-27T00:42:55.323Z,40.05
2023-02-27T00:48:00.271Z,40.80
2023-02-27T00:53:03.843Z,40.41
2023-02-27T00:58:07.864Z,40.26
2023-02-27T01:03:12.728Z,39.71
2023-02-27T01:08:16.232Z,40.30
2023-02-27T01:13:19.695Z,40.56
2023-02-27T01:18:24.708Z,39.94
2023-02-27T01:23:28.239Z,40.56
2023-02-27T01:28:31.740Z,40.16
2023-02-27T01:33:36.676Z,40.23
2023-02-27T01:38:40.139Z,40.90
2023-02-27T01:43:57.787Z,40.62
2023-02-27T01:49:05.471Z,40.81
2023-02-27T01:54:10.660Z,41.94
2023-02-27T01:59:15.120Z,42.20
2023-02-27T02:04:23.780Z,42.22
2023-02-27T02:09:27.505Z,42.68
2023-02-27T02:14:31.134Z,45.27
2023-02-27T02:20:01.353Z,43.01
2023-02-27T02:25:46.987Z,42.09
2023-02-27T02:31:33.654Z,42.26
2023-02-27T02:37:18.237Z,41.51
2023-02-27T02:42:26.595Z,41.51
2023-02-27T02:47:35.515Z,40.91
2023-02-27T02:52:45.772Z,40.46
2023-02-27T02:57:53.946Z,40.58
2023-02-27T03:03:00.769Z,40.24
2023-02-27T03:08:16.738Z,40.34
2023-02-27T03:13:30.569Z,40.48
2023-02-27T03:18:36.138Z,40.88
2023-02-27T03:23:45.066Z,40.53
2023-02-27T03:28:56.368Z,40.69
2023-02-27T03:34:03.883Z,41.53
2023-02-27T03:39:11.921Z,41.07
2023-02-27T03:44:24.737Z,41.08
2023-02-27T03:49:28.376Z,41.50
2023-02-27T03:54:35.784Z,41.10
2023-02-27T03:59:40.684Z,40.95
2023-02-27T04:04:44.372Z,40.87
2023-02-27T04:10:07.446Z,41.30
2023-02-27T04:15:17.941Z,41.10
2023-02-27T04:20:39.165Z,40.97
2023-02-27T04:25:55.856Z,41.29
2023-02-27T04:31:06.702Z,41.02
2023-02-27T04:36:14.952Z,41.15
2023-02-27T04:41:22.294Z,41.23
2023-02-27T04:46:29.458Z,41.08
2023-02-27T04:51:36.668Z,41.02
2023-02-27T04:56:43.787Z,41.03
2023-02-27T05:01:53.911Z,41.10
2023-02-27T05:06:57.861Z,41.50
2023-02-27T05:12:04.344Z,41.18
2023-02-27T05:17:11.167Z,41.35
2023-02-27T05:22:25.502Z,41.55
2023-02-27T05:27:34.371Z,41.39
2023-02-27T05:32:43.175Z,41.55
2023-02-27T05:37:49.631Z,41.03
2023-02-27T05:42:58.928Z,41.60
2023-02-27T05:48:06.226Z,41.67
2023-02-27T05:53:12.999Z,42.19
2023-02-27T05:58:20.322Z,42.59
2023-02-27T06:03:26.126Z,42.69
2023-02-27T06:08:30.097Z,43.41
2023-02-27T06:13:33.951Z,43.77
2023-02-27T06:18:39.294Z,43.69
2023-02-27T06:23:45.195Z,43.29
2023-02-27T06:28:48.819Z,43.36
2023-02-27T06:33:55.698Z,43.43
2023-02-27T06:38:59.362Z,43.10
2023-02-27T06:44:02.968Z,43.25
2023-02-27T06:49:08.023Z,43.25
2023-02-27T06:54:11.528Z,43.16
2023-02-27T06:59:15.398Z,42.97
2023-02-27T07:04:20.812Z,42.80
2023-02-27T07:09:24.566Z,43.22
2023-02-27T07:14:28.070Z,43.62
2023-02-27T07:19:36.040Z,43.55
2023-02-27T07:24:39.570Z,43.05
2023-02-27T07:29:43.285Z,44.18
2023-02-27T07:34:48.251Z,44.39
2023-02-27T07:39:51.703Z,45.26
2023-02-27T07:44:55.157Z,45.43
2023-02-27T07:50:00.156Z,44.11
2023-02-27T07:55:03.738Z,42.63
2023-02-27T08:00:09.509Z,42.75
2023-02-27T08:05:17.365Z,42.65
2023-02-27T08:10:21.183Z,42.93
2023-02-27T08:15:24.742Z,42.57
2023-02-27T08:20:29.778Z,42.41
2023-02-27T08:25:33.492Z,42.58
2023-02-27T08:30:37.202Z,41.23
2023-02-27T08:35:42.621Z,43.79
2023-02-27T08:40:46.446Z,42.00
2023-02-27T08:45:50.285Z,40.53
2023-02-27T08:50:57.469Z,39.43
2023-02-27T08:56:01.364Z,39.53
2023-02-27T09:01:05.202Z,38.57
2023-02-27T09:06:10.394Z,38.20
2023-02-27T09:11:14.035Z,38.03
2023-02-27T09:16:17.472Z,37.62
2023-02-27T09:21:22.688Z,37.19
2023-02-27T09:26:40.782Z,37.29
2023-02-27T09:31:47.167Z,36.67
2023-02-27T09:36:52.141Z,36.08
2023-02-27T09:42:01.338Z,35.89
2023-02-27T09:47:05.699Z,35.36
2023-02-27T09:52:14.387Z,36.09
2023-02-27T09:57:22.494Z,36.24
2023-02-27T10:02:44.282Z,35.77
2023-02-27T10:07:55.049Z,36.04
2023-02-27T10:13:09.896Z,33.88
2023-02-27T10:18:27.040Z,34.74
2023-02-27T10:23:37.540Z,33.11
2023-02-27T10:28:41.078Z,33.72
2023-02-27T10:33:48.038Z,32.93
2023-02-27T10:38:56.270Z,33.52
2023-02-27T10:44:01.145Z,33.64
2023-02-27T10:49:14.222Z,32.80
2023-02-27T10:54:23.450Z,33.10
2023-02-27T10:59:28.687Z,32.72
2023-02-27T11:04:34.161Z,32.35
2023-02-27T11:09:39.038Z,32.73
2023-02-27T11:14:51.129Z,33.39
2023-02-27T11:19:58.573Z,33.24
2023-02-27T11:25:21.265Z,33.77
2023-02-27T11:30:27.948Z,32.96
2023-02-27T11:35:34.238Z,31.25
2023-02-27T11:40:41.592Z,33.34
2023-02-27T11:46:05.177Z,33.04
2023-02-27T11:51:34.874Z,31.93
2023-02-27T11:56:44.152Z,32.13
2023-02-27T12:01:50.527Z,30.64
2023-02-27T12:06:57.638Z,31.63
2023-02-27T12:12:04.500Z,29.46
2023-02-27T12:17:13.290Z,29.50
2023-02-27T12:22:22.120Z,29.99
2023-02-27T12:27:30.902Z,30.27
2023-02-27T12:32:40.409Z,30.49
2023-02-27T12:37:43.923Z,28.71
2023-02-27T12:43:06.578Z,30.32
2023-02-27T12:48:18.421Z,29.35
2023-02-27T12:53:49.057Z,29.99
2023-02-27T12:59:01.104Z,29.90
2023-02-27T13:04:08.280Z,29.90
2023-02-27T13:09:26.209Z,29.10
2023-02-27T13:14:38.916Z,29.14
2023-02-27T13:19:46.065Z,29.23
2023-02-27T13:24:51.316Z,29.44
2023-02-27T13:30:06.644Z,28.27
2023-02-27T13:35:21.221Z,27.24
2023-02-27T13:40:30.907Z,27.94
2023-02-27T13:45:53.501Z,28.92
2023-02-27T13:50:57.066Z,29.24
2023-02-27T13:56:20.537Z,29.29
2023-02-27T14:01:28.851Z,29.01
2023-02-27T14:06:32.780Z,29.34
2023-02-27T14:11:39.869Z,29.49
2023-02-27T14:16:59.263Z,28.01
2023-02-27T14:22:04.368Z,27.81
2023-02-27T14:27:17.878Z,27.33
2023-02-27T14:32:25.048Z,27.54
2023-02-27T14:37:28.918Z,29.21
2023-02-27T14:42:45.911Z,28.66
2023-02-27T14:47:50.897Z,28.83
2023-02-27T14:52:54.714Z,28.33
2023-02-27T14:58:00.555Z,27.93
2023-02-27T15:03:17.853Z,28.71
2023-02-27T15:08:26.323Z,28.53
2023-02-27T15:13:31.672Z,29.00
2023-02-27T15:18:40.914Z,29.17
2023-02-27T15:23:44.694Z,28.86
2023-02-27T15:28:49.630Z,29.16
2023-02-27T15:33:54.581Z,28.88
2023-02-27T15:39:15.204Z,28.83
2023-02-27T15:44:24.926Z,29.42
2023-02-27T15:49:30.017Z,29.35
2023-02-27T15:54:34.972Z,29.37
2023-02-27T15:59:41.896Z,29.68
2023-02-27T16:04:47.831Z,29.85
2023-02-27T16:09:54.679Z,30.33
2023-02-27T16:15:24.317Z,31.04
2023-02-27T16:20:44.152Z,30.45
2023-02-27T16:26:02.130Z,31.32
2023-02-27T16:31:06.412Z,31.01
2023-02-27T16:36:17.625Z,31.43
2023-02-27T16:41:22.870Z,31.58
2023-02-27T16:46:26.652Z,31.52
2023-02-27T16:51:34.606Z,31.97
2023-02-27T16:56:41.290Z,31.94
2023-02-27T17:01:44.880Z,32.55
2023-02-27T17:06:49.763Z,32.00
2023-02-27T17:11:55.792Z,32.19
2023-02-27T17:16:59.366Z,32.44
2023-02-27T17:22:04.173Z,32.66
2023-02-27T17:27:08.600Z,32.85
2023-02-27T17:32:12.117Z,33.04
2023-02-27T17:37:17.098Z,32.90
2023-02-27T17:42:20.684Z,33.65
2023-02-27T17:47:24.182Z,33.39
2023-02-27T17:52:29.141Z,33.65
2023-02-27T17:57:35.895Z,33.74
2023-02-27T18:02:39.419Z,34.21
2023-02-27T18:07:44.252Z,34.14
2023-02-27T18:12:48.057Z,34.19
2023-02-27T18:17:51.524Z,34.21
2023-02-27T18:23:03.561Z,34.69
2023-02-27T18:28:08.411Z,34.96
2023-02-27T18:33:14.201Z,34.14
2023-02-27T18:38:19.024Z,34.32
2023-02-27T18:43:22.485Z,34.14
2023-02-27T18:48:29.072Z,34.10
2023-02-27T18:53:35.653Z,34.16
2023-02-27T18:58:39.277Z,34.35
2023-02-27T19:03:42.968Z,34.00
2023-02-27T19:08:47.890Z,34.02
2023-02-27T19:13:51.587Z,33.84
2023-02-27T19:18:55.838Z,34.06
2023-02-27T19:24:01.028Z,34.21
2023-02-27T19:29:05.338Z,34.33
2023-02-27T19:34:08.786Z,34.02
2023-02-27T19:39:16.240Z,34.42
2023-02-27T19:44:19.719Z,34.26
2023-02-27T19:49:23.212Z,34.42
2023-02-27T19:54:30.803Z,34.43
2023-02-27T19:59:34.316Z,35.12
2023-02-27T20:04:37.709Z,35.31
2023-02-27T20:09:42.488Z,35.41
2023-02-27T20:14:46.004Z,35.97
2023-02-27T20:19:49.521Z,36.03
2023-02-27T20:24:56.452Z,35.94
2023-02-27T20:29:59.997Z,36.21
2023-02-27T20:35:03.583Z,37.08
2023-02-27T20:40:09.946Z,37.51
2023-02-27T20:45:13.387Z,36.96
2023-02-27T20:50:16.908Z,37.02
2023-02-27T20:55:21.950Z,36.63
2023-02-27T21:00:26.913Z,37.66
2023-02-27T21:05:31.045Z,36.77
2023-02-27T21:10:38.982Z,36.83
2023-02-27T21:15:42.468Z,37.54
2023-02-27T21:20:46.892Z,37.86
2023-02-27T21:25:51.746Z,37.57
2023-02-27T21:30:55.294Z,37.90
2023-02-27T21:35:59.067Z,37.40
2023-02-27T21:41:07.167Z,37.51
2023-02-27T21:46:12.953Z,38.10
2023-02-27T21:51:21.563Z,38.05
2023-02-27T21:56:34.701Z,38.04
2023-02-27T22:01:38.885Z,38.35
2023-02-27T22:06:42.572Z,38.33
2023-02-27T22:11:47.789Z,38.83
2023-02-27T22:16:51.232Z,38.89
2023-02-27T22:21:54.700Z,38.68
2023-02-27T22:26:59.471Z,39.11
2023-02-27T22:32:03.127Z,38.40
2023-02-27T22:37:06.618Z,38.42
2023-02-27T22:42:11.429Z,38.45
2023-02-27T22:47:14.872Z,38.33
2023-02-27T22:52:18.307Z,37.68
2023-02-27T22:57:23.269Z,37.62
2023-02-27T23:02:33.139Z,37.60
2023-02-27T23:07:36.533Z,37.75
2023-02-27T23:12:41.388Z,38.34
2023-02-27T23:17:57.646Z,38.52
2023-02-27T23:23:01.488Z,38.66
2023-02-27T23:28:06.894Z,39.46
2023-02-27T23:33:10.409Z,38.98
2023-02-27T23:38:13.876Z,38.81
2023-02-27T23:43:18.662Z,39.25
2023-02-27T23:48:22.903Z,39.84
2023-02-27T23:53:26.426Z,40.00
2023-02-27T23:58:31.172Z,39.99
